ZBAA/PEK METAR and TAF weather

Enter ICAO airport designator
Station Type Date Time Source
ZBAA METAR 2019/06/17 06:30 UTC NOAA

ZBAA 170630Z VRB01MPS CAVOK 28/15 Q1007 NOSIG


Station Type Date Time Source
ZBAA Decoded METAR 2019/06/17 06:30 UTC NOAA

Beijing, China (ZBAA) 39-56N 116-17E 55M
Jun 17, 2019 - 02:30 AM EDT / 2019.06.17 0630 UTC
Wind: Variable at 2 MPH (2 KT):0
Visibility: greater than 7 mile(s):0
Temperature: 82 F (28 C)
Dew Point: 59 F (15 C)
Relative Humidity: 45%
Pressure (altimeter): 29.74 in. Hg (1007 hPa)
ob: ZBAA 170630Z VRB01MPS CAVOK 28/15 Q1007 NOSIG
cycle: 6

Station Type Date Time Source
ZBAA TAF 2019/06/17 06:03 UTC NOAA

TAF TAF ZBAA 170320Z 1706/1806 16004MPS CAVOK TX30/1707Z TN18/1721Z

Example: see airport list